createdAt,value
2016-07-22T00:00:33.241Z,19.79
2016-07-22T00:01:33.277Z,19.83
2016-07-22T00:02:33.261Z,19.84
2016-07-22T00:03:33.248Z,19.84
2016-07-22T00:04:33.267Z,19.75
2016-07-22T00:05:33.244Z,19.78
2016-07-22T00:06:33.232Z,19.83
2016-07-22T00:07:33.278Z,19.78
2016-07-22T00:08:33.255Z,19.8
2016-07-22T00:09:33.262Z,19.76
2016-07-22T00:10:33.250Z,19.73
2016-07-22T00:11:33.275Z,19.72
2016-07-22T00:12:33.269Z,19.75
2016-07-22T00:13:33.262Z,19.78
2016-07-22T00:14:33.307Z,19.78
2016-07-22T00:15:33.307Z,19.79
2016-07-22T00:16:33.316Z,19.83
2016-07-22T00:17:33.291Z,19.8
2016-07-22T00:18:33.318Z,19.86
2016-07-22T00:19:33.282Z,19.79
2016-07-22T00:20:33.279Z,19.79
2016-07-22T00:21:33.318Z,19.79
2016-07-22T00:22:33.317Z,19.84
2016-07-22T00:23:33.304Z,19.78
2016-07-22T00:24:33.256Z,19.84
2016-07-22T00:25:33.337Z,19.78
2016-07-22T00:26:33.299Z,19.73
2016-07-22T00:27:33.306Z,19.79
2016-07-22T00:28:33.310Z,19.84
2016-07-22T00:29:33.299Z,19.83
2016-07-22T00:30:33.310Z,19.79
2016-07-22T00:31:33.304Z,19.84
2016-07-22T00:32:33.279Z,19.84
2016-07-22T00:33:33.314Z,19.78
2016-07-22T00:34:33.309Z,19.83
2016-07-22T00:35:33.310Z,19.93
2016-07-22T00:36:33.306Z,19.88
2016-07-22T00:37:34.187Z,19.94
2016-07-22T00:38:33.293Z,19.87
2016-07-22T00:39:33.280Z,20.06
2016-07-22T00:40:33.319Z,19.94
2016-07-22T00:41:33.305Z,19.94
2016-07-22T00:42:33.313Z,20.03
2016-07-22T00:43:33.851Z,20.05
2016-07-22T00:44:33.297Z,20.1
2016-07-22T00:45:33.317Z,19.93
2016-07-22T00:46:33.311Z,20.06
2016-07-22T00:47:33.301Z,19.94
2016-07-22T00:48:33.308Z,20.16
2016-07-22T00:49:33.312Z,20.18
2016-07-22T00:50:33.320Z,20.16
2016-07-22T00:51:33.313Z,20.21
2016-07-22T00:52:33.301Z,20.12
2016-07-22T00:53:33.310Z,20.18
2016-07-22T00:54:33.317Z,20.15
2016-07-22T00:55:33.312Z,20.16
2016-07-22T00:56:33.343Z,20.2
2016-07-22T00:57:33.323Z,20.16
2016-07-22T00:58:33.305Z,20.24
2016-07-22T00:59:33.349Z,20.27
2016-07-22T01:00:33.378Z,20.2
2016-07-22T01:01:33.311Z,20.2
2016-07-22T01:02:33.306Z,20.23
2016-07-22T01:03:33.342Z,20.27
2016-07-22T01:04:33.332Z,20.25
2016-07-22T01:05:33.342Z,20.23
2016-07-22T01:06:33.335Z,20.28
2016-07-22T01:07:33.342Z,20.33
2016-07-22T01:08:33.287Z,20.31
2016-07-22T01:09:33.320Z,20.3
2016-07-22T01:10:33.306Z,20.27
2016-07-22T01:11:33.313Z,20.33
2016-07-22T01:12:33.298Z,20.27
2016-07-22T01:13:33.322Z,20.27
2016-07-22T01:14:33.379Z,20.27
2016-07-22T01:15:33.337Z,20.23
2016-07-22T01:16:33.324Z,20.24
2016-07-22T01:17:33.321Z,20.25
2016-07-22T01:18:33.312Z,20.24
2016-07-22T01:19:33.340Z,20.28
2016-07-22T01:20:33.343Z,20.2
2016-07-22T01:21:33.333Z,20.25
2016-07-22T01:22:33.345Z,20.27
2016-07-22T01:23:33.348Z,20.27
2016-07-22T01:24:33.341Z,20.27
2016-07-22T01:25:33.374Z,20.27
2016-07-22T01:26:33.369Z,20.24
2016-07-22T01:27:33.332Z,20.28
2016-07-22T01:28:33.353Z,20.27
2016-07-22T01:29:33.373Z,20.25
2016-07-22T01:30:33.378Z,20.27
2016-07-22T01:31:33.358Z,20.25
2016-07-22T01:32:33.331Z,20.34
2016-07-22T01:33:33.374Z,20.35
2016-07-22T01:34:33.348Z,20.24
2016-07-22T01:35:33.344Z,20.35
2016-07-22T01:36:33.348Z,20.3
2016-07-22T01:37:33.358Z,20.34
2016-07-22T01:38:33.342Z,20.31
2016-07-22T01:39:33.402Z,20.34
2016-07-22T01:40:33.336Z,20.38
2016-07-22T01:41:33.343Z,20.31
2016-07-22T01:42:33.380Z,20.27
2016-07-22T01:43:33.368Z,20.25
2016-07-22T01:44:33.373Z,20.39
2016-07-22T01:45:33.346Z,20.33
2016-07-22T01:46:33.406Z,20.35
2016-07-22T01:47:33.379Z,20.34
2016-07-22T01:48:33.378Z,20.34
2016-07-22T01:49:33.406Z,20.46
2016-07-22T01:50:33.410Z,20.39
2016-07-22T01:51:33.944Z,20.41
2016-07-22T01:52:33.393Z,20.34
2016-07-22T01:53:34.146Z,20.41
2016-07-22T01:54:33.377Z,20.33
2016-07-22T01:55:33.369Z,20.35
2016-07-22T01:56:33.375Z,20.31
2016-07-22T01:57:33.385Z,20.31
2016-07-22T01:58:33.377Z,20.33
2016-07-22T01:59:33.397Z,20.28
2016-07-22T02:00:33.364Z,20.39
2016-07-22T02:01:33.374Z,20.34
2016-07-22T02:02:33.407Z,20.28
2016-07-22T02:03:33.373Z,20.35
2016-07-22T02:04:34.416Z,20.34
2016-07-22T02:05:33.368Z,20.34
2016-07-22T02:06:33.410Z,20.25
2016-07-22T02:07:33.376Z,20.27
2016-07-22T02:08:33.378Z,20.28
2016-07-22T02:09:33.377Z,20.24
2016-07-22T02:10:33.376Z,20.18
2016-07-22T02:11:33.371Z,20.27
2016-07-22T02:12:33.374Z,20.16
2016-07-22T02:13:33.384Z,20.12
2016-07-22T02:14:33.376Z,20.18
2016-07-22T02:15:33.377Z,20.08
2016-07-22T02:16:33.385Z,20.02
2016-07-22T02:17:33.417Z,20.13
2016-07-22T02:18:33.404Z,19.98
2016-07-22T02:19:33.380Z,20.03
2016-07-22T02:20:33.412Z,20.08
2016-07-22T02:21:33.412Z,19.97
2016-07-22T02:22:33.440Z,20.02
2016-07-22T02:23:33.406Z,20.03
2016-07-22T02:24:33.400Z,20.12
2016-07-22T02:25:33.415Z,20.05
2016-07-22T02:26:33.408Z,20.06
2016-07-22T02:27:33.412Z,19.94
2016-07-22T02:28:33.407Z,19.93
2016-07-22T02:29:33.398Z,19.98
2016-07-22T02:30:33.381Z,20
2016-07-22T02:31:33.407Z,19.93
2016-07-22T02:32:33.443Z,19.88
2016-07-22T02:33:33.408Z,19.98
2016-07-22T02:34:33.422Z,19.94
2016-07-22T02:35:33.413Z,19.94
2016-07-22T02:36:33.405Z,19.93
2016-07-22T02:37:33.431Z,19.94
2016-07-22T02:38:33.446Z,19.97
2016-07-22T02:39:33.436Z,19.91
2016-07-22T02:40:33.481Z,19.91
2016-07-22T02:41:33.408Z,19.91
2016-07-22T02:42:33.414Z,19.87
2016-07-22T02:43:33.427Z,19.98
2016-07-22T02:44:33.408Z,19.97
2016-07-22T02:45:33.437Z,19.93
2016-07-22T02:46:33.429Z,19.9
2016-07-22T02:47:33.449Z,19.95
2016-07-22T02:48:33.421Z,19.9
2016-07-22T02:49:33.438Z,19.84
2016-07-22T02:50:33.441Z,19.93
2016-07-22T02:51:33.433Z,19.9
2016-07-22T02:52:34.097Z,19.94
2016-07-22T02:53:33.439Z,19.87
2016-07-22T02:54:33.440Z,19.94
2016-07-22T02:55:33.417Z,19.87
2016-07-22T02:56:33.414Z,19.94
2016-07-22T02:57:33.437Z,19.94
2016-07-22T02:58:33.437Z,19.88
2016-07-22T02:59:33.444Z,19.91
2016-07-22T03:00:33.422Z,19.88
2016-07-22T03:01:33.408Z,19.9
2016-07-22T03:02:33.406Z,19.91
2016-07-22T03:03:33.428Z,20.03
2016-07-22T03:04:33.439Z,19.98
2016-07-22T03:05:33.416Z,19.93
2016-07-22T03:06:33.417Z,19.97
2016-07-22T03:07:33.428Z,19.87
2016-07-22T03:08:33.435Z,19.9
2016-07-22T03:09:33.443Z,19.95
2016-07-22T03:10:33.439Z,19.94
2016-07-22T03:11:33.427Z,19.84
2016-07-22T03:12:33.436Z,19.9
2016-07-22T03:13:33.415Z,19.95
2016-07-22T03:14:33.440Z,19.93
2016-07-22T03:15:33.471Z,19.88
2016-07-22T03:16:33.459Z,19.79
2016-07-22T03:17:33.426Z,19.93
2016-07-22T03:18:33.437Z,19.91
2016-07-22T03:19:33.475Z,19.83
2016-07-22T03:20:33.477Z,19.8
2016-07-22T03:21:33.471Z,19.7
2016-07-22T03:22:33.434Z,19.72
2016-07-22T03:23:33.445Z,19.76
2016-07-22T03:24:33.477Z,19.79
2016-07-22T03:25:33.458Z,19.68
2016-07-22T03:26:33.483Z,19.68
2016-07-22T03:27:33.490Z,19.65
2016-07-22T03:28:33.472Z,19.69
2016-07-22T03:29:33.450Z,19.68
2016-07-22T03:30:33.446Z,19.72
2016-07-22T03:31:33.510Z,19.65
2016-07-22T03:32:33.450Z,19.55
2016-07-22T03:33:33.468Z,19.6
2016-07-22T03:34:33.456Z,19.6
2016-07-22T03:35:33.444Z,19.55
2016-07-22T03:36:33.474Z,19.55
2016-07-22T03:37:33.440Z,19.58
2016-07-22T03:38:33.454Z,19.53
2016-07-22T03:39:33.440Z,19.57
2016-07-22T03:40:33.460Z,19.53
2016-07-22T03:41:33.467Z,19.5
2016-07-22T03:42:33.459Z,19.5
2016-07-22T03:43:33.467Z,19.53
2016-07-22T03:44:33.497Z,19.47
2016-07-22T03:45:33.476Z,19.46
2016-07-22T03:46:33.483Z,19.48
2016-07-22T03:47:33.470Z,19.5
2016-07-22T03:48:33.474Z,19.55
2016-07-22T03:49:33.529Z,19.4
2016-07-22T03:50:33.476Z,19.47
2016-07-22T03:51:33.510Z,19.4
2016-07-22T03:52:33.472Z,19.43
2016-07-22T03:53:33.486Z,19.48
2016-07-22T03:54:33.499Z,19.4
2016-07-22T03:55:33.469Z,19.46
2016-07-22T03:56:33.483Z,19.4
2016-07-22T03:57:33.511Z,19.55
2016-07-22T03:58:33.502Z,19.43
2016-07-22T03:59:33.497Z,19.5
2016-07-22T04:00:33.491Z,19.39
2016-07-22T04:01:33.502Z,19.54
2016-07-22T04:02:33.473Z,19.4
2016-07-22T04:03:33.473Z,19.55
2016-07-22T04:04:33.500Z,19.54
2016-07-22T04:05:33.482Z,19.48
2016-07-22T04:06:33.472Z,19.57
2016-07-22T04:07:33.493Z,19.42
2016-07-22T04:08:33.482Z,19.61
2016-07-22T04:09:33.471Z,19.55
2016-07-22T04:10:33.487Z,19.54
2016-07-22T04:11:33.494Z,19.51
2016-07-22T04:12:33.504Z,19.54
2016-07-22T04:13:33.479Z,19.55
2016-07-22T04:14:33.477Z,19.6
2016-07-22T04:15:33.503Z,19.54
2016-07-22T04:16:33.491Z,19.6
2016-07-22T04:17:33.507Z,19.63
2016-07-22T04:18:33.505Z,19.75
2016-07-22T04:19:33.500Z,19.76
2016-07-22T04:20:33.496Z,19.7
2016-07-22T04:21:33.506Z,19.79
2016-07-22T04:22:33.521Z,19.84
2016-07-22T04:23:33.520Z,19.91
2016-07-22T04:24:33.495Z,19.94
2016-07-22T04:25:33.513Z,20.02
2016-07-22T04:26:33.520Z,20
2016-07-22T04:27:33.508Z,20.02
2016-07-22T04:28:33.540Z,19.94
2016-07-22T04:29:33.544Z,20.1
2016-07-22T04:30:33.599Z,20.09
2016-07-22T04:31:33.606Z,20.08
2016-07-22T04:32:33.562Z,20.21
2016-07-22T04:33:33.526Z,20.24
2016-07-22T04:34:33.502Z,20.31
2016-07-22T04:35:33.535Z,20.27
2016-07-22T04:36:33.537Z,20.38
2016-07-22T04:37:33.532Z,20.46
2016-07-22T04:38:33.538Z,20.41
2016-07-22T04:39:33.534Z,20.51
2016-07-22T04:40:33.541Z,20.54
2016-07-22T04:41:33.523Z,20.56
2016-07-22T04:42:33.540Z,20.58
2016-07-22T04:43:33.538Z,20.58
2016-07-22T04:44:33.535Z,20.68
2016-07-22T04:45:33.551Z,20.68
2016-07-22T04:46:33.542Z,20.76
2016-07-22T04:47:33.544Z,20.79
2016-07-22T04:48:33.540Z,20.79
2016-07-22T04:49:33.547Z,20.8
2016-07-22T04:50:33.581Z,20.93
2016-07-22T04:51:33.533Z,20.9
2016-07-22T04:52:33.540Z,20.93
2016-07-22T04:53:33.537Z,21.02
2016-07-22T04:54:33.534Z,21.01
2016-07-22T04:55:33.541Z,21.17
2016-07-22T04:56:33.533Z,21.19
2016-07-22T04:57:33.533Z,21.27
2016-07-22T04:58:33.536Z,21.23
2016-07-22T04:59:33.546Z,21.23
2016-07-22T05:00:33.553Z,21.32
2016-07-22T05:01:33.536Z,21.38
2016-07-22T05:02:33.539Z,21.38
2016-07-22T05:03:33.536Z,21.54
2016-07-22T05:04:33.536Z,21.46
2016-07-22T05:05:33.567Z,21.54
2016-07-22T05:06:33.572Z,21.56
2016-07-22T05:07:33.595Z,21.64
2016-07-22T05:08:33.595Z,21.74
2016-07-22T05:09:33.566Z,21.67
2016-07-22T05:10:33.573Z,21.72
2016-07-22T05:11:33.565Z,21.91
2016-07-22T05:12:33.569Z,21.81
2016-07-22T05:13:33.565Z,21.83
2016-07-22T05:14:33.573Z,21.91
2016-07-22T05:15:33.565Z,21.92
2016-07-22T05:16:33.586Z,21.98
2016-07-22T05:17:33.579Z,21.83
2016-07-22T05:18:33.599Z,22.01
2016-07-22T05:19:33.743Z,22.06
2016-07-22T05:20:33.599Z,21.92
2016-07-22T05:21:33.571Z,22.02
2016-07-22T05:22:33.549Z,22.02
2016-07-22T05:23:33.567Z,22.06
2016-07-22T05:24:33.574Z,22.09
2016-07-22T05:25:33.567Z,22.09
2016-07-22T05:26:33.555Z,22.12
2016-07-22T05:27:33.591Z,22.19
2016-07-22T05:28:33.570Z,22.14
2016-07-22T05:29:33.568Z,22.23
2016-07-22T05:30:33.569Z,22.27
2016-07-22T05:31:33.576Z,22.23
2016-07-22T05:32:33.599Z,22.27
2016-07-22T05:33:33.599Z,22.34
2016-07-22T05:34:33.588Z,22.44
2016-07-22T05:35:33.604Z,22.37
2016-07-22T05:36:33.570Z,22.31
2016-07-22T05:37:33.628Z,22.37
2016-07-22T05:38:33.569Z,22.34
2016-07-22T05:39:33.595Z,22.38
2016-07-22T05:40:33.596Z,22.52
2016-07-22T05:41:33.589Z,22.47
2016-07-22T05:42:33.569Z,22.44
2016-07-22T05:43:33.577Z,22.46
2016-07-22T05:44:33.582Z,22.5
2016-07-22T05:45:33.589Z,22.54
2016-07-22T05:46:33.588Z,22.54
2016-07-22T05:47:33.737Z,22.71
2016-07-22T05:48:33.607Z,22.64
2016-07-22T05:49:33.624Z,22.57
2016-07-22T05:50:33.597Z,22.75
2016-07-22T05:51:33.585Z,22.65
2016-07-22T05:52:33.625Z,22.77
2016-07-22T05:53:33.569Z,22.75
2016-07-22T05:54:33.578Z,22.78
2016-07-22T05:55:33.569Z,22.87
2016-07-22T05:56:33.599Z,22.77
2016-07-22T05:57:33.625Z,22.9
2016-07-22T05:58:33.577Z,22.94
2016-07-22T05:59:33.616Z,22.92
2016-07-22T06:00:33.594Z,22.9
2016-07-22T06:01:33.601Z,22.96
2016-07-22T06:02:33.597Z,22.99
2016-07-22T06:03:33.571Z,23.09
2016-07-22T06:04:33.587Z,23.05
2016-07-22T06:05:33.598Z,23.15
2016-07-22T06:06:33.587Z,23.19
2016-07-22T06:07:33.630Z,23.23
2016-07-22T06:08:33.630Z,23.11
2016-07-22T06:09:33.589Z,23.22
2016-07-22T06:10:33.587Z,23.26
2016-07-22T06:11:33.588Z,23.15
2016-07-22T06:12:33.601Z,23.2
2016-07-22T06:13:33.595Z,23.27
2016-07-22T06:14:33.631Z,23.31
2016-07-22T06:15:33.631Z,23.2
2016-07-22T06:16:33.613Z,23.31
2016-07-22T06:17:33.593Z,23.27
2016-07-22T06:18:33.632Z,23.38
2016-07-22T06:19:33.614Z,23.4
2016-07-22T06:20:33.632Z,23.45
2016-07-22T06:21:33.635Z,23.43
2016-07-22T06:22:33.631Z,23.39
2016-07-22T06:23:33.722Z,23.39
2016-07-22T06:24:33.624Z,23.45
2016-07-22T06:25:33.647Z,23.5
2016-07-22T06:26:33.625Z,23.58
2016-07-22T06:27:33.646Z,23.67
2016-07-22T06:28:33.632Z,23.71
2016-07-22T06:29:33.633Z,23.7
2016-07-22T06:30:33.622Z,23.64
2016-07-22T06:31:33.630Z,23.72
2016-07-22T06:32:33.750Z,23.68
2016-07-22T06:33:33.640Z,23.82
2016-07-22T06:34:33.664Z,23.83
2016-07-22T06:35:33.665Z,23.87
2016-07-22T06:36:33.660Z,23.86
2016-07-22T06:37:33.636Z,23.85
2016-07-22T06:38:33.661Z,23.8
2016-07-22T06:39:33.654Z,23.89
2016-07-22T06:40:33.643Z,23.87
2016-07-22T06:41:33.650Z,24.01
2016-07-22T06:42:33.626Z,24.02
2016-07-22T06:43:33.661Z,24.01
2016-07-22T06:44:33.654Z,24.19
2016-07-22T06:45:33.666Z,24.04
2016-07-22T06:46:33.622Z,24.17
2016-07-22T06:47:33.721Z,24.23
2016-07-22T06:48:33.663Z,24.12
2016-07-22T06:49:33.662Z,24.27
2016-07-22T06:50:33.675Z,24.14
2016-07-22T06:51:33.663Z,24.2
2016-07-22T06:52:33.684Z,24.23
2016-07-22T06:53:33.645Z,24.29
2016-07-22T06:54:33.663Z,24.31
2016-07-22T06:55:33.659Z,24.38
2016-07-22T06:56:33.663Z,24.24
2016-07-22T06:57:33.662Z,24.23
2016-07-22T06:58:33.689Z,24.35
2016-07-22T06:59:33.696Z,24.27
2016-07-22T07:00:33.688Z,24.32
2016-07-22T07:01:33.696Z,24.26
2016-07-22T07:02:33.750Z,24.17
2016-07-22T07:03:34.583Z,24.05
2016-07-22T07:04:33.655Z,24.1
2016-07-22T07:05:33.700Z,24.04
2016-07-22T07:06:33.673Z,24.17
2016-07-22T07:07:33.694Z,24.12
2016-07-22T07:08:33.698Z,24.04
2016-07-22T07:09:33.692Z,24.01
2016-07-22T07:10:33.699Z,24
2016-07-22T07:11:33.675Z,23.95
2016-07-22T07:12:33.680Z,23.86
2016-07-22T07:13:33.682Z,23.83
2016-07-22T07:14:33.670Z,23.79
2016-07-22T07:15:34.383Z,23.85
2016-07-22T07:16:33.685Z,23.85
2016-07-22T07:18:33.679Z,23.77
2016-07-22T07:19:33.704Z,23.75
2016-07-22T07:20:33.674Z,23.79
2016-07-22T07:21:33.672Z,23.83
2016-07-22T07:22:33.678Z,23.87
2016-07-22T07:23:33.684Z,23.94
2016-07-22T07:24:33.684Z,24.04
2016-07-22T07:25:33.676Z,24.17
2016-07-22T07:26:33.712Z,24.16
2016-07-22T07:27:33.694Z,24.37
2016-07-22T07:28:33.695Z,24.59
2016-07-22T07:29:33.704Z,24.75
2016-07-22T07:30:33.704Z,24.8
2016-07-22T07:31:33.695Z,24.57
2016-07-22T07:32:33.717Z,24.69
2016-07-22T07:33:33.713Z,24.73
2016-07-22T07:34:33.718Z,25.09
2016-07-22T07:35:33.766Z,25.25
2016-07-22T07:36:33.726Z,25.34
2016-07-22T07:37:33.698Z,25.86
2016-07-22T07:38:33.719Z,26.12
2016-07-22T07:39:33.756Z,26.32
2016-07-22T07:40:33.697Z,26.54
2016-07-22T07:41:33.725Z,26.65
2016-07-22T07:42:33.729Z,26.79
2016-07-22T07:43:33.734Z,26.96
2016-07-22T07:44:33.729Z,26.94
2016-07-22T07:45:33.764Z,27.14
2016-07-22T07:46:58.303Z,27.13
2016-07-22T07:47:40.156Z,27.11
2016-07-22T07:49:04.116Z,27.32
2016-07-22T07:49:58.927Z,27.41
2016-07-22T07:50:50.359Z,27.48
2016-07-22T07:51:49.673Z,27.32
2016-07-22T07:52:49.626Z,27.41
2016-07-22T07:53:44.758Z,27.53
2016-07-22T07:54:43.804Z,27.46
2016-07-22T07:55:43.850Z,27.41
2016-07-22T07:56:43.948Z,27.43
2016-07-22T07:57:43.899Z,27.35
2016-07-22T07:58:43.990Z,27.28
2016-07-22T07:59:43.968Z,27.39
2016-07-22T08:00:43.943Z,27.41
2016-07-22T08:01:43.842Z,27.48
2016-07-22T08:02:43.867Z,27.17
2016-07-22T08:03:43.850Z,27.13
2016-07-22T08:04:43.961Z,27.14
2016-07-22T08:06:12.262Z,27.28
2016-07-22T08:07:18.889Z,27.29
2016-07-22T08:08:25.933Z,27.28
2016-07-22T08:09:11.448Z,27.21
2016-07-22T08:10:07.671Z,27.33
2016-07-22T08:11:03.090Z,27.29
2016-07-22T08:12:39.578Z,27.2
2016-07-22T08:14:09.146Z,27.13
2016-07-22T08:15:33.096Z,27.13
2016-07-22T08:17:03.161Z,27.01
2016-07-22T08:18:24.220Z,26.77
2016-07-22T08:19:45.378Z,26.58
2016-07-22T08:21:08.036Z,26.35
2016-07-22T08:22:28.592Z,26.08
2016-07-22T08:23:16.234Z,26.08
2016-07-22T08:24:18.028Z,26.29
2016-07-22T08:25:21.286Z,26.12
2016-07-22T08:26:26.471Z,26.36
2016-07-22T08:27:29.660Z,26.47
2016-07-22T08:28:06.494Z,26.43
2016-07-22T08:29:06.490Z,26.46
2016-07-22T08:30:06.495Z,26.42
2016-07-22T08:31:06.483Z,26.31
2016-07-22T08:32:06.556Z,26.35
2016-07-22T08:33:06.490Z,26.18
2016-07-22T08:34:06.522Z,26.29
2016-07-22T08:35:06.493Z,26.29
2016-07-22T08:36:06.525Z,26.06
2016-07-22T08:37:06.486Z,26.22
2016-07-22T08:38:06.518Z,26.22
2016-07-22T08:39:06.523Z,26.29
2016-07-22T08:40:06.535Z,26.25
2016-07-22T08:41:06.548Z,26.11
2016-07-22T08:42:06.517Z,26.05
2016-07-22T08:43:06.537Z,25.98
2016-07-22T08:44:06.518Z,25.98
2016-07-22T08:45:06.515Z,26.09
2016-07-22T08:46:06.490Z,26.12
2016-07-22T08:47:06.554Z,25.97
2016-07-22T08:48:06.540Z,25.93
2016-07-22T08:49:06.580Z,26.08
2016-07-22T08:50:06.506Z,26.25
2016-07-22T08:51:06.542Z,26.42
2016-07-22T08:52:06.506Z,26.44
2016-07-22T08:53:06.531Z,26.44
2016-07-22T08:54:06.518Z,26.44
2016-07-22T08:55:06.521Z,26.52
2016-07-22T08:56:06.528Z,26.37
2016-07-22T08:57:06.517Z,26.49
2016-07-22T08:58:06.527Z,26.55
2016-07-22T08:59:06.516Z,26.64
2016-07-22T09:00:06.616Z,26.4
2016-07-22T09:01:06.582Z,26.49
2016-07-22T09:02:06.625Z,26.54
2016-07-22T09:03:06.592Z,26.49
2016-07-22T09:04:06.554Z,26.44
2016-07-22T09:05:06.549Z,26.32
2016-07-22T09:06:06.517Z,26.39
2016-07-22T09:07:06.550Z,26.31
2016-07-22T09:08:06.540Z,26.49
2016-07-22T09:09:06.577Z,26.47
2016-07-22T09:10:06.551Z,26.39
2016-07-22T09:11:06.541Z,26.46
2016-07-22T09:12:06.542Z,26.61
2016-07-22T09:13:06.545Z,26.68
2016-07-22T09:14:06.546Z,26.87
2016-07-22T09:15:06.566Z,27.06
2016-07-22T09:16:06.543Z,27.17
2016-07-22T09:17:06.552Z,27.14
2016-07-22T09:18:06.588Z,27.39
2016-07-22T09:19:06.582Z,27.35
2016-07-22T09:20:06.552Z,27.11
2016-07-22T09:21:06.559Z,27.46
2016-07-22T09:22:06.621Z,27.48
2016-07-22T09:23:06.581Z,27.39
2016-07-22T09:24:06.581Z,27.42
2016-07-22T09:25:06.618Z,27.7
2016-07-22T09:26:07.542Z,27.86
2016-07-22T09:27:06.551Z,27.76
2016-07-22T09:28:06.582Z,27.92
2016-07-22T09:29:06.581Z,27.86
2016-07-22T09:30:06.556Z,28.04
2016-07-22T09:31:06.567Z,28.13
2016-07-22T09:32:06.553Z,28.19
2016-07-22T09:33:06.628Z,28.28
2016-07-22T09:34:06.593Z,28.41
2016-07-22T09:35:06.583Z,28.38
2016-07-22T09:36:06.590Z,28.32
2016-07-22T09:37:06.941Z,28.25
2016-07-22T09:38:06.582Z,28.21
2016-07-22T09:39:06.600Z,28.16
2016-07-22T09:40:06.577Z,28.16
2016-07-22T09:41:06.574Z,28.19
2016-07-22T09:42:06.639Z,28.14
2016-07-22T09:43:06.572Z,28.13
2016-07-22T09:44:06.719Z,28.01
2016-07-22T09:45:06.587Z,27.86
2016-07-22T09:46:06.608Z,27.77
2016-07-22T09:47:06.569Z,27.61
2016-07-22T09:48:06.615Z,27.39
2016-07-22T09:49:06.615Z,27.31
2016-07-22T09:50:06.615Z,27.02
2016-07-22T09:51:06.626Z,26.87
2016-07-22T09:52:07.578Z,26.64
2016-07-22T09:53:06.593Z,26.44
2016-07-22T09:54:06.616Z,26.27
2016-07-22T09:55:06.617Z,26.09
2016-07-22T09:56:06.600Z,25.84
2016-07-22T09:57:06.653Z,25.71
2016-07-22T09:58:06.586Z,25.61
2016-07-22T09:59:06.610Z,25.43
2016-07-22T10:00:06.654Z,25.27
2016-07-22T10:01:06.660Z,25.1
2016-07-22T10:02:06.711Z,24.9
2016-07-22T10:03:06.678Z,24.83
2016-07-22T10:04:06.704Z,24.59
2016-07-22T10:05:06.617Z,24.63
2016-07-22T10:06:06.607Z,24.57
2016-07-22T10:07:06.643Z,24.01
2016-07-22T10:08:06.607Z,24.02
2016-07-22T10:09:06.628Z,23.94
2016-07-22T10:10:06.631Z,23.64
2016-07-22T10:11:06.675Z,23.62
2016-07-22T10:12:06.617Z,23.58
2016-07-22T10:13:06.583Z,23.72
2016-07-22T10:14:06.643Z,23.52
2016-07-22T10:15:06.593Z,23.53
2016-07-22T10:16:06.591Z,23.4
2016-07-22T10:17:06.704Z,23.14
2016-07-22T10:18:06.611Z,23.04
2016-07-22T10:19:06.630Z,22.94
2016-07-22T10:20:06.606Z,22.78
2016-07-22T10:21:06.671Z,22.68
2016-07-22T10:22:06.620Z,22.65
2016-07-22T10:23:06.675Z,22.72
2016-07-22T10:24:06.620Z,22.56
2016-07-22T10:25:06.665Z,22.57
2016-07-22T10:26:06.631Z,22.53
2016-07-22T10:27:06.616Z,22.53
2016-07-22T10:28:06.623Z,22.49
2016-07-22T10:29:06.632Z,22.5
2016-07-22T10:30:06.653Z,22.52
2016-07-22T10:31:06.646Z,22.47
2016-07-22T10:32:06.645Z,22.41
2016-07-22T10:33:06.645Z,22.31
2016-07-22T10:34:06.648Z,22.35
2016-07-22T10:35:06.647Z,22.25
2016-07-22T10:36:06.637Z,22.06
2016-07-22T10:37:06.648Z,22.12
2016-07-22T10:38:06.637Z,22.14
2016-07-22T10:39:06.613Z,21.99
2016-07-22T10:40:06.643Z,21.79
2016-07-22T10:41:06.643Z,21.75
2016-07-22T10:42:06.674Z,21.56
2016-07-22T10:43:06.647Z,21.46
2016-07-22T10:44:07.177Z,21.36
2016-07-22T10:45:06.683Z,21.3
2016-07-22T10:46:06.643Z,21.36
2016-07-22T10:47:06.632Z,21.32
2016-07-22T10:48:06.612Z,21.19
2016-07-22T10:49:06.644Z,21.05
2016-07-22T10:50:06.635Z,21.02
2016-07-22T10:51:06.644Z,21.01
2016-07-22T10:52:06.624Z,21.01
2016-07-22T10:53:06.648Z,20.86
2016-07-22T10:54:06.652Z,20.8
2016-07-22T10:55:06.623Z,20.79
2016-07-22T10:56:06.641Z,20.69
2016-07-22T10:57:06.674Z,20.74
2016-07-22T10:58:06.668Z,20.59
2016-07-22T10:59:06.650Z,20.56
2016-07-22T11:00:06.730Z,20.47
2016-07-22T11:01:06.676Z,20.61
2016-07-22T11:02:06.650Z,20.68
2016-07-22T11:03:06.655Z,20.69
2016-07-22T11:04:06.652Z,20.71
2016-07-22T11:05:06.672Z,20.64
2016-07-22T11:06:06.666Z,20.64
2016-07-22T11:07:06.705Z,20.65
2016-07-22T11:08:06.668Z,20.83
2016-07-22T11:09:06.644Z,21.08
2016-07-22T11:10:06.645Z,21.29
2016-07-22T11:11:06.657Z,21.54
2016-07-22T11:12:06.667Z,21.75
2016-07-22T11:13:06.648Z,21.75
2016-07-22T11:14:06.655Z,21.79
2016-07-22T11:15:06.703Z,21.91
2016-07-22T11:16:06.734Z,22.06
2016-07-22T11:17:06.716Z,22.28
2016-07-22T11:18:06.671Z,22.65
2016-07-22T11:19:06.665Z,22.86
2016-07-22T11:20:06.671Z,22.87
2016-07-22T11:21:06.647Z,22.93
2016-07-22T11:22:06.680Z,22.75
2016-07-22T11:23:06.864Z,22.77
2016-07-22T11:24:06.667Z,22.8
2016-07-22T11:25:06.683Z,22.78
2016-07-22T11:26:06.682Z,22.87
2016-07-22T11:27:06.702Z,22.83
2016-07-22T11:28:06.677Z,22.8
2016-07-22T11:29:06.788Z,22.78
2016-07-22T11:30:07.330Z,22.83
2016-07-22T11:31:06.818Z,22.9
2016-07-22T11:32:06.676Z,22.83
2016-07-22T11:33:06.751Z,22.94
2016-07-22T11:34:06.726Z,23.01
2016-07-22T11:35:06.709Z,22.99
2016-07-22T11:36:07.797Z,22.97
2016-07-22T11:37:06.714Z,23.09
2016-07-22T11:38:06.721Z,23.14
2016-07-22T11:39:06.692Z,23.2
2016-07-22T11:40:06.725Z,23.17
2016-07-22T11:41:06.723Z,23.31
2016-07-22T11:42:06.734Z,23.52
2016-07-22T11:43:06.713Z,23.5
2016-07-22T11:44:06.742Z,23.76
2016-07-22T11:45:07.058Z,23.82
2016-07-22T11:46:06.680Z,23.86
2016-07-22T11:47:06.734Z,23.72
2016-07-22T11:48:06.708Z,23.82
2016-07-22T11:49:06.725Z,23.72
2016-07-22T11:50:06.710Z,23.79
2016-07-22T11:51:06.718Z,23.94
2016-07-22T11:52:06.719Z,23.8
2016-07-22T11:53:06.700Z,23.92
2016-07-22T11:54:06.713Z,23.75
2016-07-22T11:55:06.748Z,23.6
2016-07-22T11:56:06.743Z,23.92
2016-07-22T11:57:06.705Z,24.04
2016-07-22T11:58:06.830Z,24
2016-07-22T11:59:06.893Z,23.86
2016-07-22T12:00:07.452Z,23.86
2016-07-22T12:01:07.091Z,24.1
2016-07-22T12:02:07.657Z,23.82
2016-07-22T12:03:07.256Z,24.16
2016-07-22T12:04:06.737Z,24.24
2016-07-22T12:05:06.827Z,24.53
2016-07-22T12:06:06.787Z,24.42
2016-07-22T12:07:06.771Z,24.54
2016-07-22T12:08:06.771Z,24.64
2016-07-22T12:09:08.317Z,24.59
2016-07-22T12:10:06.864Z,24.76
2016-07-22T12:11:07.469Z,24.82
2016-07-22T12:12:06.847Z,24.9
2016-07-22T12:13:06.746Z,24.76
2016-07-22T12:14:06.795Z,24.97
2016-07-22T12:15:07.535Z,24.95
2016-07-22T12:16:06.755Z,25.16
2016-07-22T12:17:08.425Z,25.1
2016-07-22T12:18:07.067Z,25.1
2016-07-22T12:19:06.987Z,25.1
2016-07-22T12:20:06.804Z,25.06
2016-07-22T12:21:06.800Z,25.06
2016-07-22T12:22:06.790Z,25.16
2016-07-22T12:23:06.832Z,25.16
2016-07-22T12:24:06.813Z,25.3
2016-07-22T12:25:06.800Z,25.3
2016-07-22T12:26:06.791Z,25.37
2016-07-22T12:27:06.769Z,25.35
2016-07-22T12:28:06.760Z,25.49
2016-07-22T12:29:06.779Z,25.54
2016-07-22T12:30:07.123Z,25.62
2016-07-22T12:31:06.795Z,25.8
2016-07-22T12:32:06.774Z,25.98
2016-07-22T12:33:07.060Z,26.09
2016-07-22T12:34:06.979Z,26.31
2016-07-22T12:35:07.580Z,26.55
2016-07-22T12:36:06.862Z,26.59
2016-07-22T12:37:06.794Z,26.73
2016-07-22T12:38:06.780Z,26.8
2016-07-22T12:39:06.777Z,26.91
2016-07-22T12:40:06.864Z,26.98
2016-07-22T12:41:06.821Z,26.99
2016-07-22T12:42:06.812Z,27.17
2016-07-22T12:43:06.804Z,27.35
2016-07-22T12:44:07.889Z,27.32
2016-07-22T12:45:06.744Z,27.36
2016-07-22T12:46:06.760Z,27.32
2016-07-22T12:47:07.562Z,27.24
2016-07-22T12:48:06.898Z,27.42
2016-07-22T12:49:06.782Z,27.46
2016-07-22T12:50:06.773Z,27.62
2016-07-22T12:51:06.894Z,27.67
2016-07-22T12:52:06.774Z,27.59
2016-07-22T12:53:06.767Z,27.64
2016-07-22T12:54:06.813Z,27.76
2016-07-22T12:55:07.961Z,27.74
2016-07-22T12:56:06.814Z,27.7
2016-07-22T12:57:07.026Z,27.8
2016-07-22T12:58:06.900Z,27.73
2016-07-22T12:59:06.804Z,27.71
2016-07-22T13:00:06.901Z,27.8